createdAt,value
2022-12-11T00:02:24.684Z,2.2399999999999998
2022-12-11T00:07:29.965Z,1.86
2022-12-11T00:12:36.169Z,1.22
2022-12-11T00:17:41.643Z,1.38
2022-12-11T00:22:47.617Z,1.5
2022-12-11T00:27:52.889Z,1.3800000000000001
2022-12-11T00:32:59.116Z,2.12
2022-12-11T00:38:04.337Z,1.3800000000000001
2022-12-11T00:43:09.583Z,1.48
2022-12-11T00:48:14.810Z,1.5799999999999998
2022-12-11T00:53:20.049Z,0.9600000000000002
2022-12-11T00:58:26.302Z,1
2022-12-11T01:03:31.541Z,0.9199999999999999
2022-12-11T01:08:41.774Z,1.1
2022-12-11T01:13:47.959Z,1.4
2022-12-11T01:18:53.252Z,1.08
2022-12-11T01:23:58.505Z,1.2599999999999998
2022-12-11T01:29:07.655Z,0.9600000000000002
2022-12-11T01:34:14.059Z,0.9800000000000001
2022-12-11T01:39:19.136Z,1.1
2022-12-11T01:45:37.257Z,1.08
2022-12-11T01:50:45.481Z,0.8200000000000001
2022-12-11T01:55:53.661Z,1.58
2022-12-11T02:00:59.347Z,6.459999999999999
2022-12-11T02:06:04.169Z,5.02
2022-12-11T02:11:20.349Z,3.2199999999999998
2022-12-11T02:16:33.619Z,0.76
2022-12-11T02:21:48.771Z,1.9600000000000002
2022-12-11T02:27:21.960Z,2.6599999999999997
2022-12-11T02:32:34.575Z,3.4
2022-12-11T02:37:45.403Z,3.46
2022-12-11T02:48:03.882Z,3.1799999999999997
2022-12-11T02:53:14.085Z,3.3
2022-12-11T02:58:28.278Z,3.44
2022-12-11T03:03:33.530Z,4.7
2022-12-11T03:08:39.785Z,4.220000000000001
2022-12-11T03:13:46.961Z,4.4799999999999995
2022-12-11T03:19:08.202Z,4.24
2022-12-11T03:24:19.829Z,4.68
2022-12-11T03:29:30.597Z,5.460000000000001
2022-12-11T03:34:44.830Z,5.0200000000000005
2022-12-11T03:45:08.522Z,5.040000000000001
2022-12-11T03:50:15.488Z,5.9799999999999995
2022-12-11T03:55:23.762Z,6.1
2022-12-11T04:00:29.997Z,5.460000000000001
2022-12-11T04:05:43.255Z,5.859999999999999
2022-12-11T04:10:49.409Z,6.0200000000000005
2022-12-11T04:15:54.787Z,6.42
2022-12-11T04:20:59.947Z,6.4799999999999995
2022-12-11T04:26:06.140Z,7.279999999999999
2022-12-11T04:31:17.721Z,6.6
2022-12-11T04:36:22.611Z,6.56
2022-12-11T04:41:31.800Z,7.139999999999999
2022-12-11T04:46:38.200Z,6.659999999999999
2022-12-11T04:51:43.285Z,7.12
2022-12-11T04:56:49.560Z,7.2
2022-12-11T05:01:56.263Z,6.319999999999999
2022-12-11T05:07:02.008Z,7.58
2022-12-11T05:12:08.209Z,7.2
2022-12-11T05:17:18.459Z,7.08
2022-12-11T05:22:31.644Z,8.860000000000001
2022-12-11T05:27:36.923Z,7.82
2022-12-11T05:32:47.102Z,9.580000000000002
2022-12-11T05:37:52.386Z,8.2
2022-12-11T05:42:57.626Z,8.8
2022-12-11T05:48:02.819Z,9.040000000000001
2022-12-11T05:53:08.076Z,9.74
2022-12-11T05:58:13.344Z,9.3
2022-12-11T06:03:24.533Z,9.24
2022-12-11T06:08:29.939Z,9.36
2022-12-11T06:13:35.039Z,9.440000000000001
2022-12-11T06:18:41.686Z,10.04
2022-12-11T06:23:47.439Z,12.420000000000002
2022-12-11T06:28:52.751Z,13.38
2022-12-11T06:33:57.975Z,13.680000000000001
2022-12-11T06:39:03.257Z,12.679999999999998
2022-12-11T06:44:09.419Z,17.139999999999997
2022-12-11T06:49:15.709Z,12.24
2022-12-11T06:54:25.870Z,20.44
2022-12-11T06:59:31.085Z,14
2022-12-11T07:04:36.372Z,14.9
2022-12-11T07:09:41.605Z,12.16
2022-12-11T07:14:46.847Z,12.22
2022-12-11T07:19:52.049Z,14.2
2022-12-11T07:24:58.301Z,23.48
2022-12-11T07:30:03.573Z,18.419999999999998
2022-12-11T07:35:09.120Z,16.119999999999997
2022-12-11T07:40:14.411Z,14.7
2022-12-11T07:45:19.252Z,16.02
2022-12-11T07:50:29.538Z,22.339999999999996
2022-12-11T07:55:34.754Z,37.62
2022-12-11T08:00:44.964Z,22.799999999999997
2022-12-11T08:05:51.204Z,39.42
2022-12-11T08:10:56.392Z,20.38
2022-12-11T08:16:03.644Z,26.419999999999998
2022-12-11T08:21:11.898Z,60.88000000000001
2022-12-11T08:26:18.131Z,35.9
2022-12-11T08:31:25.374Z,32.64
2022-12-11T08:36:30.586Z,32.96
2022-12-11T08:41:41.805Z,59.120000000000005
2022-12-11T08:46:48.214Z,54.339999999999996
2022-12-11T08:51:54.246Z,30.52
2022-12-11T08:57:00.492Z,24.84
2022-12-11T09:02:05.796Z,23.620000000000005
2022-12-11T09:07:11.004Z,29.78
2022-12-11T09:12:16.234Z,21.979999999999997
2022-12-11T09:17:21.735Z,28.540000000000003
2022-12-11T09:22:32.663Z,15.459999999999999
2022-12-11T09:28:18.781Z,19.56
2022-12-11T09:33:24.033Z,13.88
2022-12-11T09:38:29.285Z,15.16
2022-12-11T09:43:47.772Z,14.66
2022-12-11T09:48:54.724Z,17.84
2022-12-11T09:54:03.968Z,16.419999999999998
2022-12-11T09:59:18.159Z,17.64
2022-12-11T10:04:42.366Z,16.08
2022-12-11T10:10:00.555Z,16.4
2022-12-11T10:15:25.749Z,21.56
2022-12-11T10:20:35.948Z,13.679999999999998
2022-12-11T10:25:50.159Z,13.1
2022-12-11T10:31:00.542Z,9.72
2022-12-11T10:36:09.623Z,12.36
2022-12-11T10:41:18.880Z,12.34
2022-12-11T10:51:37.347Z,14.24
2022-12-11T10:56:52.701Z,12.52
2022-12-11T11:12:27.177Z,18.46
2022-12-11T11:17:35.410Z,14.3
2022-12-11T12:57:11.448Z,37.339999999999996
2022-12-11T13:06:17.114Z,13.48
2022-12-11T13:11:34.314Z,14.4
2022-12-11T13:16:41.555Z,14.98
2022-12-11T13:47:55.875Z,15.38
2022-12-11T13:53:04.090Z,8.959999999999999
2022-12-11T13:58:19.273Z,7.74
2022-12-11T14:05:14.492Z,13.8
2022-12-11T15:07:58.908Z,11.399999999999999
2022-12-11T15:13:36.027Z,9.36
2022-12-11T15:18:25.303Z,18.18
2022-12-11T15:23:53.511Z,15.36
2022-12-11T15:29:28.612Z,24.1
2022-12-11T15:35:40.692Z,16.24
2022-12-11T15:41:18.874Z,15.3
2022-12-11T15:46:19.211Z,9.059999999999999
2022-12-11T15:51:19.382Z,12.059999999999999
2022-12-11T15:56:19.630Z,8.32
2022-12-11T16:02:13.765Z,14.559999999999999
2022-12-11T17:50:53.454Z,20.339999999999996
2022-12-11T18:10:08.552Z,10.92
2022-12-11T18:15:10.139Z,9.5
2022-12-11T18:50:14.522Z,17.880000000000003
2022-12-11T18:55:19.806Z,10.559999999999999
2022-12-11T19:00:21.096Z,9.78
2022-12-11T19:05:37.397Z,8.24
2022-12-11T19:10:46.617Z,8.36
2022-12-11T19:15:50.729Z,11.559999999999999
2022-12-11T19:21:01.584Z,7.38
2022-12-11T19:26:04.188Z,6.88
2022-12-11T19:31:04.523Z,7.720000000000001
2022-12-11T19:36:06.670Z,12.4
2022-12-11T19:41:07.919Z,8.920000000000002
2022-12-11T19:46:09.168Z,7.5
2022-12-11T19:51:10.418Z,6.720000000000001
2022-12-11T19:56:10.667Z,5.66
2022-12-11T20:01:18.953Z,5.42
2022-12-11T20:06:18.110Z,4.7
2022-12-11T20:11:19.421Z,6.0200000000000005
2022-12-11T20:16:28.923Z,3.9799999999999995
2022-12-11T20:21:39.805Z,5.24
2022-12-11T20:26:40.281Z,6
2022-12-11T20:31:40.425Z,5.659999999999999
2022-12-11T20:36:40.577Z,9.3
2022-12-11T20:41:40.818Z,7.38
2022-12-11T20:46:41.081Z,8.120000000000001
2022-12-11T20:51:40.377Z,7.5200000000000005
2022-12-11T20:56:39.567Z,7.74
2022-12-11T21:01:40.980Z,7.140000000000001
2022-12-11T21:06:41.057Z,6.32
2022-12-11T21:11:42.421Z,6.02
2022-12-11T21:16:42.592Z,5.880000000000001
2022-12-11T21:21:41.855Z,6.32
2022-12-11T21:26:42.104Z,6.02
2022-12-11T21:31:42.374Z,6.38
2022-12-11T21:36:41.579Z,6.32
2022-12-11T21:41:42.809Z,5.82
2022-12-11T21:46:43.106Z,6.640000000000001
2022-12-11T21:51:47.031Z,8.76
2022-12-11T21:56:48.567Z,19.86
2022-12-11T22:02:25.832Z,13
2022-12-11T22:08:02.005Z,20.6
2022-12-11T22:13:48.029Z,22.58
2022-12-11T22:18:48.308Z,13.559999999999999
2022-12-11T22:23:48.533Z,11.059999999999999
2022-12-11T22:28:48.808Z,6.68
2022-12-11T22:33:45.038Z,8.360000000000001
2022-12-11T22:38:45.268Z,7.220000000000001
2022-12-11T22:43:45.533Z,6.659999999999999
2022-12-11T22:48:45.788Z,7.1
2022-12-11T22:53:45.999Z,5.92
2022-12-11T22:58:31.306Z,7.38
2022-12-11T23:02:50.823Z,12.960000000000003
2022-12-11T23:08:26.985Z,7.159999999999999
2022-12-11T23:13:23.075Z,9.7
2022-12-11T23:18:19.405Z,7.840000000000001
2022-12-11T23:23:15.624Z,9.120000000000001
2022-12-11T23:27:31.932Z,7.2
2022-12-11T23:32:32.217Z,7.18
2022-12-11T23:37:32.491Z,6.5
2022-12-11T23:42:32.742Z,6.06
2022-12-11T23:47:32.953Z,7.880000000000001
2022-12-11T23:52:33.182Z,7.76
2022-12-11T23:57:33.605Z,7.959999999999999
